createdAt,value
2023-05-20T00:02:47.507Z,10.87
2023-05-20T00:05:50.031Z,10.82
2023-05-20T00:08:52.568Z,10.93
2023-05-20T00:11:54.991Z,10.91
2023-05-20T00:14:57.453Z,10.88
2023-05-20T00:18:01.537Z,10.83
2023-05-20T00:21:03.974Z,10.90
2023-05-20T00:24:06.645Z,10.94
2023-05-20T00:27:09.191Z,10.94
2023-05-20T00:30:12.333Z,10.91
2023-05-20T00:33:14.770Z,10.94
2023-05-20T00:36:17.160Z,10.91
2023-05-20T00:39:19.581Z,10.88
2023-05-20T00:42:22.801Z,10.89
2023-05-20T00:45:26.238Z,10.90
2023-05-20T00:48:40.542Z,10.86
2023-05-20T00:51:43.051Z,10.91
2023-05-20T00:54:46.030Z,10.89
2023-05-20T00:57:49.568Z,10.93
2023-05-20T01:00:52.524Z,10.82
2023-05-20T01:03:54.996Z,10.73
2023-05-20T01:06:58.798Z,10.81
2023-05-20T01:10:01.590Z,10.81
2023-05-20T01:13:06.614Z,10.79
2023-05-20T01:16:09.583Z,10.70
2023-05-20T01:19:44.569Z,11.00
2023-05-20T01:22:50.590Z,10.93
2023-05-20T01:25:52.905Z,10.97
2023-05-20T01:28:58.172Z,10.76
2023-05-20T01:32:01.772Z,10.98
2023-05-20T01:35:05.472Z,10.86
2023-05-20T01:38:08.597Z,10.79
2023-05-20T01:41:11.878Z,10.85
2023-05-20T01:44:14.250Z,11.01
2023-05-20T01:47:17.144Z,10.90
2023-05-20T01:50:20.117Z,10.96
2023-05-20T01:53:22.810Z,11.00
2023-05-20T01:56:25.198Z,10.90
2023-05-20T01:59:27.628Z,10.98
2023-05-20T02:02:30.135Z,11.04
2023-05-20T02:05:32.859Z,11.05
2023-05-20T02:08:35.545Z,11.04
2023-05-20T02:11:38.008Z,10.89
2023-05-20T02:14:40.387Z,10.88
2023-05-20T02:17:43.888Z,10.95
2023-05-20T02:20:46.821Z,10.97
2023-05-20T02:23:50.028Z,10.93
2023-05-20T02:26:53.905Z,11.09
2023-05-20T02:29:56.373Z,11.08
2023-05-20T02:32:59.212Z,10.96
2023-05-20T02:36:02.267Z,10.96
2023-05-20T02:39:04.739Z,11.08
2023-05-20T02:42:07.269Z,11.00
2023-05-20T02:45:09.984Z,10.91
2023-05-20T02:48:12.380Z,11.01
2023-05-20T02:51:14.807Z,10.96
2023-05-20T02:54:17.278Z,11.10
2023-05-20T02:57:19.827Z,11.03
2023-05-20T03:00:23.816Z,11.06
2023-05-20T03:03:30.096Z,10.99
2023-05-20T03:06:32.461Z,11.08
2023-05-20T03:09:34.888Z,10.95
2023-05-20T03:12:37.338Z,11.04
2023-05-20T03:15:40.095Z,11.10
2023-05-20T03:18:43.127Z,11.15
2023-05-20T03:21:46.753Z,11.02
2023-05-20T03:24:49.321Z,11.13
2023-05-20T03:27:51.720Z,11.10
2023-05-20T03:30:54.299Z,11.27
2023-05-20T03:33:57.262Z,11.29
2023-05-20T03:37:00.454Z,11.28
2023-05-20T03:40:06.370Z,11.35
2023-05-20T03:43:10.718Z,11.40
2023-05-20T03:46:13.371Z,11.36
2023-05-20T03:49:16.415Z,11.42
2023-05-20T03:52:19.065Z,11.49
2023-05-20T03:55:21.602Z,11.33
2023-05-20T03:58:24.193Z,11.65
2023-05-20T04:01:26.547Z,11.63
2023-05-20T04:04:29.399Z,11.70
2023-05-20T04:07:31.798Z,11.71
2023-05-20T04:10:34.437Z,11.59
2023-05-20T04:13:36.988Z,11.57
2023-05-20T04:16:39.844Z,11.61
2023-05-20T04:19:42.780Z,11.59
2023-05-20T04:22:46.265Z,11.56
2023-05-20T04:25:49.097Z,11.73
2023-05-20T04:28:51.782Z,11.70
2023-05-20T04:31:54.255Z,11.65
2023-05-20T04:34:57.664Z,11.70
2023-05-20T04:38:01.149Z,11.76
2023-05-20T04:41:04.882Z,11.78
2023-05-20T04:44:07.470Z,11.73
2023-05-20T04:47:09.899Z,11.77
2023-05-20T04:50:14.975Z,11.84
2023-05-20T04:53:17.669Z,11.93
2023-05-20T04:56:20.063Z,11.96
2023-05-20T04:59:22.648Z,11.92
2023-05-20T05:02:26.279Z,11.85
2023-05-20T05:05:29.680Z,12.00
2023-05-20T05:08:32.030Z,12.16
2023-05-20T05:11:35.001Z,12.13
2023-05-20T05:14:38.084Z,12.04
2023-05-20T05:17:40.550Z,12.33
2023-05-20T05:20:43.258Z,12.38
2023-05-20T05:23:46.120Z,12.40
2023-05-20T05:26:48.671Z,12.61
2023-05-20T05:29:51.211Z,12.63
2023-05-20T05:32:54.949Z,12.77
2023-05-20T05:35:59.493Z,12.78
2023-05-20T05:39:02.278Z,13.11
2023-05-20T05:42:05.670Z,12.99
2023-05-20T05:45:10.141Z,12.97
2023-05-20T05:48:13.240Z,12.94
2023-05-20T05:51:16.035Z,12.93
2023-05-20T05:54:20.563Z,13.11
2023-05-20T05:57:23.551Z,13.07
2023-05-20T06:00:26.198Z,13.25
2023-05-20T06:03:31.165Z,13.34
2023-05-20T06:06:34.384Z,13.29
2023-05-20T06:09:36.846Z,13.40
2023-05-20T06:12:39.225Z,13.59
2023-05-20T06:15:41.778Z,13.55
2023-05-20T06:18:44.498Z,13.80
2023-05-20T06:21:48.403Z,13.92
2023-05-20T06:24:51.046Z,14.03
2023-05-20T06:27:53.898Z,13.98
2023-05-20T06:30:58.958Z,13.84
2023-05-20T06:34:03.060Z,13.92
2023-05-20T06:37:06.078Z,14.24
2023-05-20T06:40:10.021Z,14.34
2023-05-20T06:43:13.063Z,14.60
2023-05-20T06:46:41.620Z,14.62
2023-05-20T06:49:48.760Z,14.90
2023-05-20T06:52:51.839Z,15.15
2023-05-20T06:55:58.626Z,15.13
2023-05-20T06:59:01.736Z,15.25
2023-05-20T07:02:06.090Z,15.44
2023-05-20T07:05:09.044Z,15.62
2023-05-20T07:08:11.803Z,15.90
2023-05-20T07:11:14.497Z,15.80
2023-05-20T07:14:17.109Z,15.83
2023-05-20T07:17:19.730Z,15.97
2023-05-20T07:20:22.421Z,16.04
2023-05-20T07:23:25.314Z,16.03
2023-05-20T07:26:33.611Z,16.06
2023-05-20T07:29:38.923Z,16.19
2023-05-20T07:32:42.496Z,16.22
2023-05-20T07:35:45.776Z,16.39
2023-05-20T07:39:00.607Z,16.50
2023-05-20T07:42:08.941Z,16.59
2023-05-20T07:45:15.677Z,16.77
2023-05-20T07:48:18.195Z,17.20
2023-05-20T07:51:20.749Z,17.33
2023-05-20T07:54:24.094Z,17.12
2023-05-20T07:57:28.370Z,17.44
2023-05-20T08:00:30.946Z,17.49
2023-05-20T08:03:39.022Z,17.40
2023-05-20T08:06:46.897Z,17.67
2023-05-20T08:09:57.406Z,17.76
2023-05-20T08:13:00.082Z,17.83
2023-05-20T08:16:06.144Z,17.98
2023-05-20T08:19:09.040Z,18.14
2023-05-20T08:22:13.123Z,18.06
2023-05-20T08:25:16.667Z,18.21
2023-05-20T08:28:20.289Z,18.36
2023-05-20T08:31:22.819Z,18.57
2023-05-20T08:34:26.331Z,18.44
2023-05-20T08:37:29.623Z,18.69
2023-05-20T08:40:32.173Z,18.95
2023-05-20T08:43:34.908Z,19.33
2023-05-20T08:46:39.190Z,19.25
2023-05-20T08:49:42.253Z,19.21
2023-05-20T08:52:48.347Z,19.30
2023-05-20T08:56:00.969Z,19.13
2023-05-20T08:59:05.551Z,19.11
2023-05-20T09:02:10.088Z,19.26
2023-05-20T09:05:12.720Z,19.60
2023-05-20T09:08:15.467Z,19.51
2023-05-20T09:11:18.393Z,19.57
2023-05-20T09:14:21.463Z,19.65
2023-05-20T09:17:24.721Z,19.63
2023-05-20T09:20:29.699Z,19.72
2023-05-20T09:23:32.453Z,19.67
2023-05-20T09:26:36.578Z,19.85
2023-05-20T09:29:39.569Z,19.86
2023-05-20T09:32:42.184Z,20.00
2023-05-20T09:35:45.482Z,20.21
2023-05-20T09:38:49.715Z,19.85
2023-05-20T09:42:04.444Z,19.76
2023-05-20T09:45:09.764Z,19.69
2023-05-20T09:48:13.456Z,19.80
2023-05-20T09:51:17.709Z,19.79
2023-05-20T09:54:20.877Z,20.11
2023-05-20T09:57:23.598Z,20.03
2023-05-20T10:00:26.829Z,19.81
2023-05-20T10:03:30.319Z,19.67
2023-05-20T10:06:44.573Z,19.63
2023-05-20T10:10:04.594Z,19.56
2023-05-20T10:13:22.513Z,19.59
2023-05-20T10:16:55.795Z,19.57
2023-05-20T10:20:00.415Z,19.63
2023-05-20T10:23:05.464Z,19.83
2023-05-20T10:26:08.365Z,19.77
2023-05-20T10:29:20.916Z,20.08
2023-05-20T10:32:35.116Z,20.03
2023-05-20T10:35:48.584Z,20.16
2023-05-20T10:38:58.019Z,20.29
2023-05-20T10:42:11.346Z,20.44
2023-05-20T10:45:29.627Z,20.16
2023-05-20T10:48:34.524Z,20.14
2023-05-20T10:51:39.040Z,20.16
2023-05-20T10:54:54.814Z,20.26
2023-05-20T10:57:59.182Z,20.02
2023-05-20T11:01:03.904Z,20.28
2023-05-20T11:04:07.394Z,20.36
2023-05-20T11:07:11.358Z,20.21
2023-05-20T11:10:15.169Z,20.19
2023-05-20T11:13:19.710Z,20.47
2023-05-20T11:16:23.453Z,20.38
2023-05-20T11:19:28.113Z,20.41
2023-05-20T11:22:32.481Z,20.41
2023-05-20T11:25:37.376Z,20.47
2023-05-20T11:28:41.629Z,20.36
2023-05-20T11:31:45.487Z,20.99
2023-05-20T11:34:54.074Z,20.75
2023-05-20T11:38:11.185Z,21.14
2023-05-20T11:41:15.079Z,21.17
2023-05-20T11:44:21.325Z,21.30
2023-05-20T11:47:30.492Z,21.43
2023-05-20T11:50:39.913Z,21.39
2023-05-20T11:53:42.833Z,21.44
2023-05-20T11:56:46.255Z,21.25
2023-05-20T11:59:50.185Z,21.12
2023-05-20T12:02:53.367Z,21.26
2023-05-20T12:05:55.907Z,21.47
2023-05-20T12:09:06.944Z,21.57
2023-05-20T12:12:11.493Z,21.26
2023-05-20T12:15:14.400Z,21.19
2023-05-20T12:18:16.966Z,21.35
2023-05-20T12:21:20.103Z,21.13
2023-05-20T12:24:22.785Z,21.11
2023-05-20T12:27:25.439Z,21.22
2023-05-20T12:30:28.336Z,21.39
2023-05-20T12:33:31.553Z,21.14
2023-05-20T12:36:34.646Z,21.11
2023-05-20T12:39:37.344Z,21.29
2023-05-20T12:42:40.905Z,21.42
2023-05-20T12:45:43.475Z,21.49
2023-05-20T12:48:46.095Z,21.62
2023-05-20T12:51:48.639Z,21.67
2023-05-20T12:54:51.784Z,21.83
2023-05-20T12:57:56.633Z,21.49
2023-05-20T13:00:59.247Z,21.30
2023-05-20T13:04:02.565Z,21.55
2023-05-20T13:07:05.392Z,21.66
2023-05-20T13:10:11.677Z,21.75
2023-05-20T13:13:22.237Z,22.09
2023-05-20T13:16:25.649Z,22.26
2023-05-20T13:19:29.572Z,22.40
2023-05-20T13:22:33.280Z,22.71
2023-05-20T13:25:37.258Z,22.68
2023-05-20T13:28:39.939Z,22.62
2023-05-20T13:31:43.050Z,22.87
2023-05-20T13:34:45.921Z,22.75
2023-05-20T13:37:49.240Z,22.87
2023-05-20T13:40:52.087Z,22.96
2023-05-20T13:43:56.867Z,23.20
2023-05-20T13:47:01.300Z,23.41
2023-05-20T13:50:04.827Z,23.41
2023-05-20T13:53:13.922Z,23.30
2023-05-20T13:56:17.739Z,23.25
2023-05-20T13:59:21.576Z,23.28
2023-05-20T14:02:25.210Z,23.75
2023-05-20T14:05:28.212Z,23.45
2023-05-20T14:08:31.326Z,23.58
2023-05-20T14:11:33.962Z,23.90
2023-05-20T14:14:36.693Z,24.23
2023-05-20T14:17:40.599Z,24.42
2023-05-20T14:20:43.768Z,24.51
2023-05-20T14:23:46.800Z,24.58
2023-05-20T14:26:50.014Z,24.57
2023-05-20T14:29:52.847Z,24.09
2023-05-20T14:32:55.591Z,23.90
2023-05-20T14:35:58.217Z,24.20
2023-05-20T14:39:00.834Z,24.09
2023-05-20T14:42:03.670Z,24.25
2023-05-20T14:45:06.748Z,24.09
2023-05-20T14:48:09.903Z,24.00
2023-05-20T14:51:13.379Z,23.91
2023-05-20T14:54:16.438Z,24.29
2023-05-20T14:57:19.550Z,24.43
2023-05-20T15:00:22.640Z,24.28
2023-05-20T15:03:27.698Z,24.49
2023-05-20T15:06:32.925Z,24.65
2023-05-20T15:09:36.041Z,24.63
2023-05-20T15:12:40.516Z,24.30
2023-05-20T15:15:46.166Z,24.18
2023-05-20T15:18:50.111Z,24.06
2023-05-20T15:21:53.639Z,24.14
2023-05-20T15:24:56.383Z,24.16
2023-05-20T15:27:58.787Z,24.40
2023-05-20T15:31:01.205Z,24.49
2023-05-20T15:34:03.709Z,24.39
2023-05-20T15:37:06.370Z,24.19
2023-05-20T15:40:09.498Z,24.22
2023-05-20T15:43:11.835Z,24.25
2023-05-20T15:46:14.398Z,24.20
2023-05-20T15:49:16.961Z,24.09
2023-05-20T15:52:19.522Z,23.97
2023-05-20T15:55:23.541Z,23.97
2023-05-20T15:58:26.054Z,24.01
2023-05-20T16:01:28.751Z,23.84
2023-05-20T16:04:32.648Z,23.87
2023-05-20T16:07:35.168Z,24.18
2023-05-20T16:10:37.635Z,23.90
2023-05-20T16:13:40.193Z,24.02
2023-05-20T16:16:42.750Z,23.94
2023-05-20T16:19:46.410Z,23.85
2023-05-20T16:22:49.021Z,23.82
2023-05-20T16:25:51.559Z,23.93
2023-05-20T16:28:54.353Z,24.05
2023-05-20T16:31:56.895Z,24.15
2023-05-20T16:34:59.325Z,24.08
2023-05-20T16:38:01.768Z,23.88
2023-05-20T16:41:04.413Z,23.82
2023-05-20T16:44:06.803Z,23.51
2023-05-20T16:47:09.554Z,23.31
2023-05-20T16:50:12.133Z,23.26
2023-05-20T16:53:16.332Z,23.21
2023-05-20T16:56:19.364Z,23.09
2023-05-20T16:59:21.829Z,23.03
2023-05-20T17:02:24.379Z,22.93
2023-05-20T17:05:26.886Z,22.86
2023-05-20T17:08:30.007Z,22.76
2023-05-20T17:11:32.595Z,22.59
2023-05-20T17:14:35.235Z,22.54
2023-05-20T17:17:38.024Z,22.35
2023-05-20T17:20:41.503Z,22.21
2023-05-20T17:23:44.914Z,22.14
2023-05-20T17:26:47.810Z,21.92
2023-05-20T17:29:50.756Z,21.98
2023-05-20T17:32:54.212Z,21.99
2023-05-20T17:35:57.052Z,21.70
2023-05-20T17:38:59.718Z,21.26
2023-05-20T17:42:03.246Z,21.38
2023-05-20T17:45:06.897Z,21.05
2023-05-20T17:48:11.500Z,20.86
2023-05-20T17:51:15.765Z,20.57
2023-05-20T17:54:18.612Z,20.31
2023-05-20T17:57:22.014Z,20.29
2023-05-20T18:00:27.008Z,20.22
2023-05-20T18:03:30.780Z,19.90
2023-05-20T18:06:34.934Z,19.51
2023-05-20T18:09:37.705Z,19.29
2023-05-20T18:12:40.319Z,19.08
2023-05-20T18:15:42.972Z,18.70
2023-05-20T18:18:45.964Z,18.54
2023-05-20T18:21:48.756Z,18.38
2023-05-20T18:24:51.485Z,18.13
2023-05-20T18:27:54.725Z,18.03
2023-05-20T18:30:57.972Z,17.80
2023-05-20T18:34:02.410Z,17.78
2023-05-20T18:37:07.208Z,17.71
2023-05-20T18:40:11.488Z,17.36
2023-05-20T18:43:15.050Z,17.23
2023-05-20T18:46:18.951Z,17.08
2023-05-20T18:49:22.899Z,16.94
2023-05-20T18:52:26.808Z,16.78
2023-05-20T18:55:29.793Z,16.69
2023-05-20T18:58:32.527Z,16.59
2023-05-20T19:01:37.068Z,16.56
2023-05-20T19:04:40.045Z,16.57
2023-05-20T19:07:42.759Z,16.56
2023-05-20T19:10:45.445Z,16.52
2023-05-20T19:13:49.332Z,16.39
2023-05-20T19:16:52.990Z,16.29
2023-05-20T19:19:56.741Z,16.31
2023-05-20T19:22:59.090Z,16.26
2023-05-20T19:26:01.456Z,16.08
2023-05-20T19:29:03.850Z,16.03
2023-05-20T19:32:06.657Z,16.00
2023-05-20T19:35:09.477Z,15.96
2023-05-20T19:38:12.602Z,15.92
2023-05-20T19:41:15.046Z,15.74
2023-05-20T19:44:17.511Z,15.77
2023-05-20T19:47:20.164Z,15.77
2023-05-20T19:50:22.725Z,15.42
2023-05-20T19:53:25.191Z,15.22
2023-05-20T19:56:27.653Z,15.13
2023-05-20T19:59:30.440Z,14.92
2023-05-20T20:02:33.491Z,14.78
2023-05-20T20:05:37.546Z,14.63
2023-05-20T20:08:40.315Z,14.50
2023-05-20T20:11:43.451Z,14.57
2023-05-20T20:14:46.274Z,14.64
2023-05-20T20:17:52.344Z,14.97
2023-05-20T20:20:54.972Z,14.97
2023-05-20T20:23:57.326Z,14.99
2023-05-20T20:26:59.808Z,14.98
2023-05-20T20:30:02.248Z,14.98
2023-05-20T20:33:07.142Z,15.08
2023-05-20T20:36:09.880Z,15.05
2023-05-20T20:39:19.022Z,14.86
2023-05-20T20:42:24.479Z,14.73
2023-05-20T20:45:26.915Z,14.68
2023-05-20T20:48:29.367Z,14.78
2023-05-20T20:51:31.941Z,14.87
2023-05-20T20:54:34.338Z,14.95
2023-05-20T20:57:37.143Z,14.90
2023-05-20T21:00:40.328Z,14.76
2023-05-20T21:03:44.813Z,14.69
2023-05-20T21:06:47.235Z,14.52
2023-05-20T21:09:55.032Z,14.37
2023-05-20T21:13:00.730Z,14.19
2023-05-20T21:16:03.070Z,14.03
2023-05-20T21:19:06.244Z,13.98
2023-05-20T21:22:08.646Z,13.94
2023-05-20T21:25:11.348Z,13.88
2023-05-20T21:28:13.943Z,14.13
2023-05-20T21:31:16.424Z,14.20
2023-05-20T21:34:18.872Z,14.44
2023-05-20T21:37:21.328Z,14.45
2023-05-20T21:40:24.048Z,14.40
2023-05-20T21:43:26.521Z,14.49
2023-05-20T21:46:28.928Z,14.62
2023-05-20T21:49:31.447Z,14.62
2023-05-20T21:52:33.801Z,14.62
2023-05-20T21:55:36.605Z,14.54
2023-05-20T21:58:41.373Z,14.45
2023-05-20T22:01:44.014Z,14.35
2023-05-20T22:04:46.448Z,14.34
2023-05-20T22:07:51.360Z,14.41
2023-05-20T22:10:55.009Z,14.41
2023-05-20T22:13:57.540Z,14.26
2023-05-20T22:16:59.944Z,14.39
2023-05-20T22:20:07.084Z,14.43
2023-05-20T22:23:09.532Z,14.46
2023-05-20T22:26:11.944Z,14.50
2023-05-20T22:29:14.312Z,14.48
2023-05-20T22:32:16.685Z,14.54
2023-05-20T22:35:19.197Z,14.53
2023-05-20T22:38:22.228Z,14.53
2023-05-20T22:41:24.613Z,14.48
2023-05-20T22:44:26.929Z,14.42
2023-05-20T22:47:29.276Z,14.40
2023-05-20T22:50:35.427Z,14.40
2023-05-20T22:53:37.904Z,14.45
2023-05-20T22:56:40.361Z,14.46
2023-05-20T22:59:43.066Z,14.52
2023-05-20T23:02:49.945Z,14.42
2023-05-20T23:05:52.704Z,14.52
2023-05-20T23:08:55.381Z,14.56
2023-05-20T23:11:57.769Z,14.52
2023-05-20T23:15:00.251Z,14.52
2023-05-20T23:18:02.680Z,14.49
2023-05-20T23:21:05.310Z,14.39
2023-05-20T23:24:07.800Z,14.39
2023-05-20T23:27:10.225Z,14.41
2023-05-20T23:30:12.944Z,14.41
2023-05-20T23:33:17.708Z,14.40
2023-05-20T23:36:21.884Z,14.37
2023-05-20T23:39:24.413Z,14.29
2023-05-20T23:42:26.972Z,14.38
2023-05-20T23:45:29.303Z,14.40
2023-05-20T23:48:31.624Z,14.35
2023-05-20T23:51:35.636Z,14.29
2023-05-20T23:54:37.955Z,14.38
2023-05-20T23:57:41.602Z,14.32
